LRSV/SCV METAR and TAF weather

Enter ICAO airport designator
Station Type Date Time Source
LRSV METAR 2019/12/07 05:00 UTC NOAA

LRSV 070500Z AUTO 26008KT 9999 NCD 02/M05 Q1013


Station Type Date Time Source
LRSV Decoded METAR 2019/12/07 05:00 UTC NOAA

Suceava / Salcea, Romania (LRSV) 47-39N 026-15E 351M
Dec 07, 2019 - 12:00 AM EST / 2019.12.07 0500 UTC
Wind: from the W (260 degrees) at 9 MPH (8 KT):0
Visibility: greater than 7 mile(s):0
Temperature: 35 F (2 C)
Windchill: 28 F (-2 C):1
Dew Point: 23 F (-5 C)
Relative Humidity: 59%
Pressure (altimeter): 29.91 in. Hg (1013 hPa)
ob: LRSV 070500Z AUTO 26008KT 9999 NCD 02/M05 Q1013
cycle: 5

Station Type Date Time Source
LRSV TAF 2014/07/19 18:48 UTC NOAA

TAF LRSV 191800Z 1918/2024 CNL

Example: see airport list